Terminal Aerodrome Forecast
Issued by NWS

Home | Current Version | Previous Version | Text Only | Print | Product List | Glossary On
Versions: 1 2 3 4 5 6 7 8 9 10 11 12 13 14 15 16 17 18 19 20 21 22 23 24 25 26 27 28 29 30 31 32
000
FTUS41 KCTP 240044 AAC
TAFBFD
TAF AMD
KBFD 240044Z 2401/2424 05009KT 5SM -RASN BR BKN006 OVC015
     FM240200 05008KT 1SM -SN BR OVC006
      TEMPO 2402/2404 1/2SM SN OVC004
     FM240600 36007KT 1SM -SN BR OVC003
     FM241700 31009KT P6SM OVC015=

USA.gov is the U.S. government's official web portal to all federal, state and local government web resources and services.